Time;durP1;ratioP1;P1;durP2;ratioP2;P2;SDS_P1;SDS_P2;PMS_P1;PMS_P2;Temp;Humidity;BMP_temperature;BMP_pressure;BME280_temperature;BME280_humidity;BME280_pressure;Samples;Min_cycle;Max_cycle;Signal;HPM_P1;HPM_P2
2022/12/28 00:01:06;;;;;;;;;;;18.40;60.00;;;;;;4445539;32;20010;-71
2022/12/28 00:03:32;;;;;;;;;;;18.40;60.00;;;;;;4457692;32;20309;-71
2022/12/28 00:05:58;;;;;;;;;;;18.40;60.00;;;;;;4457774;32;20411;-72
2022/12/28 00:08:23;;;;;;;;;;;18.30;60.00;;;;;;4456785;32;20053;-71
2022/12/28 00:10:49;;;;;;;;;;;18.40;60.00;;;;;;4458629;32;19982;-71
2022/12/28 00:13:15;;;;;;;;;;;18.30;59.90;;;;;;4458185;32;20168;-74
2022/12/28 00:15:41;;;;;;;;;;;18.30;59.90;;;;;;4459372;32;20428;-72
2022/12/28 00:18:07;;;;;;;;;;;18.30;60.00;;;;;;4459250;32;20028;-71
2022/12/28 00:20:33;;;;;;;;;;;18.30;60.00;;;;;;4457747;32;20372;-71
2022/12/28 00:22:58;;;;;;;;;;;18.20;59.90;;;;;;4459597;32;19981;-72
2022/12/28 00:25:24;;;;;;;;;;;18.30;59.90;;;;;;4456640;32;20021;-71
2022/12/28 00:27:50;;;;;;;;;;;18.20;59.90;;;;;;4456640;32;19982;-71
2022/12/28 00:30:16;;;;;;;;;;;18.20;59.90;;;;;;4460853;32;20316;-71
2022/12/28 00:32:41;;;;;;;;;;;18.20;59.80;;;;;;4460650;32;19982;-72
2022/12/28 00:35:07;;;;;;;;;;;18.20;59.80;;;;;;4460919;32;19978;-71
2022/12/28 00:37:33;;;;;;;;;;;18.20;59.70;;;;;;4460314;32;20052;-71
2022/12/28 00:39:59;;;;;;;;;;;18.20;59.80;;;;;;4460731;32;20353;-71
2022/12/28 00:42:24;;;;;;;;;;;18.20;59.80;;;;;;4460502;32;20096;-72
2022/12/28 00:44:50;;;;;;;;;;;18.10;59.70;;;;;;4460622;32;19993;-72
2022/12/28 00:47:16;;;;;;;;;;;18.20;59.80;;;;;;4460791;32;20016;-71
2022/12/28 00:49:42;;;;;;;;;;;18.10;59.80;;;;;;4460534;32;19958;-71
2022/12/28 00:52:08;;;;;;;;;;;18.10;59.80;;;;;;4460340;32;20057;-71
2022/12/28 00:54:33;;;;;;;;;;;18.10;59.70;;;;;;4460514;32;19986;-72
2022/12/28 00:56:59;;;;;;;;;;;18.10;59.70;;;;;;4460630;32;20316;-71
2022/12/28 00:59:25;;;;;;;;;;;18.10;59.70;;;;;;4460569;32;20013;-72
2022/12/28 01:01:51;;;;;;;;;;;18.10;59.70;;;;;;4460648;32;19975;-72
2022/12/28 01:04:16;;;;;;;;;;;18.00;59.70;;;;;;4460263;32;20103;-72
2022/12/28 01:06:42;;;;;;;;;;;18.10;59.70;;;;;;4460233;32;19990;-71
2022/12/28 01:09:08;;;;;;;;;;;18.00;59.60;;;;;;4462047;32;20107;-72
2022/12/28 01:11:38;;;;;;;;;;;18.00;59.70;;;;;;4463577;32;19982;-71
2022/12/28 01:14:03;;;;;;;;;;;18.00;59.70;;;;;;4463825;32;20377;-72
2022/12/28 01:16:32;;;;;;;;;;;18.00;59.70;;;;;;4463766;32;20477;-71
2022/12/28 01:18:59;;;;;;;;;;;18.00;59.70;;;;;;4463816;32;20021;-72
2022/12/28 01:21:26;;;;;;;;;;;18.00;59.70;;;;;;4463723;32;20112;-72
2022/12/28 01:23:53;;;;;;;;;;;18.00;59.70;;;;;;4463765;32;20010;-72
2022/12/28 01:26:19;;;;;;;;;;;18.00;59.70;;;;;;4463613;32;19996;-70
2022/12/28 01:28:45;;;;;;;;;;;18.00;59.60;;;;;;4463130;32;20311;-71
2022/12/28 01:31:12;;;;;;;;;;;17.90;59.60;;;;;;4463580;32;20418;-72
2022/12/28 01:33:38;;;;;;;;;;;17.90;59.60;;;;;;4463611;32;20000;-72
2022/12/28 01:36:12;;;;;;;;;;;17.90;59.60;;;;;;4463516;32;20387;-71
2022/12/28 01:38:38;;;;;;;;;;;17.90;59.60;;;;;;4463703;32;20033;-71
2022/12/28 01:41:11;;;;;;;;;;;17.90;59.60;;;;;;4463122;32;20036;-71
2022/12/28 01:43:39;;;;;;;;;;;17.90;59.60;;;;;;4463381;32;19970;-72
2022/12/28 01:46:05;;;;;;;;;;;17.90;59.60;;;;;;4463150;32;20044;-71
2022/12/28 01:48:31;;;;;;;;;;;17.90;59.60;;;;;;4463463;32;19978;-70
2022/12/28 01:50:59;;;;;;;;;;;17.90;59.60;;;;;;4462972;32;19989;-71
2022/12/28 01:53:25;;;;;;;;;;;17.80;59.50;;;;;;4463252;32;20107;-71
2022/12/28 01:55:51;;;;;;;;;;;17.90;59.60;;;;;;4463243;32;20194;-71
2022/12/28 01:58:21;;;;;;;;;;;17.80;59.50;;;;;;4463525;32;20033;-71
2022/12/28 02:00:47;;;;;;;;;;;17.80;59.60;;;;;;4463165;32;20024;-71
2022/12/28 02:03:18;;;;;;;;;;;17.80;59.60;;;;;;4448824;32;20001;-71
2022/12/28 02:06:00;;;;;;;;;;;17.80;59.60;;;;;;4462659;32;19986;-71
2022/12/28 02:08:44;;;;;;;;;;;17.80;59.60;;;;;;4462938;32;20052;-71
2022/12/28 02:11:12;;;;;;;;;;;17.80;59.50;;;;;;4462657;32;20392;-71
2022/12/28 02:13:38;;;;;;;;;;;17.80;59.60;;;;;;4462867;32;20011;-71
2022/12/28 02:16:04;;;;;;;;;;;17.80;59.60;;;;;;4462780;32;20001;-71
2022/12/28 02:18:41;;;;;;;;;;;17.80;59.70;;;;;;4462573;32;20123;-71
2022/12/28 02:21:25;;;;;;;;;;;17.70;59.60;;;;;;4461862;32;20592;-71
2022/12/28 02:24:10;;;;;;;;;;;17.70;59.60;;;;;;4452488;32;20404;-71
2022/12/28 02:26:54;;;;;;;;;;;17.70;59.60;;;;;;4462372;32;20131;-71
2022/12/28 02:29:30;;;;;;;;;;;17.70;59.60;;;;;;4452302;32;20335;-71
2022/12/28 02:32:16;;;;;;;;;;;17.70;59.60;;;;;;4462379;32;19994;-71
2022/12/28 02:34:44;;;;;;;;;;;17.70;59.60;;;;;;4462690;32;20072;-71
2022/12/28 02:37:33;;;;;;;;;;;17.70;59.60;;;;;;4447979;32;20289;-71
2022/12/28 02:40:06;;;;;;;;;;;17.70;59.60;;;;;;4439815;32;20204;-71
2022/12/28 02:42:33;;;;;;;;;;;17.70;59.70;;;;;;4462053;32;20115;-72
2022/12/28 02:50:49;;;;;;;;;;;17.60;59.50;;;;;;4462273;32;20164;-71
2022/12/28 02:53:34;;;;;;;;;;;17.60;59.50;;;;;;4461858;32;20052;-71
2022/12/28 02:56:18;;;;;;;;;;;17.60;59.60;;;;;;4461861;32;20021;-71
2022/12/28 02:58:46;;;;;;;;;;;17.60;59.70;;;;;;4462035;32;20501;-71
2022/12/28 03:01:24;;;;;;;;;;;17.60;59.70;;;;;;4461800;32;20236;-71
2022/12/28 03:03:50;;;;;;;;;;;17.60;59.70;;;;;;4461588;32;19985;-71
2022/12/28 03:09:12;;;;;;;;;;;17.60;59.70;;;;;;4461970;32;20451;-71
2022/12/28 03:11:38;;;;;;;;;;;17.50;59.50;;;;;;4461686;32;19982;-71
2022/12/28 03:14:07;;;;;;;;;;;17.50;59.60;;;;;;4461833;32;20315;-71
2022/12/28 03:33:07;;;;;;;;;;;17.50;59.70;;;;;;4461346;32;20085;-71
2022/12/28 03:35:43;;;;;;;;;;;17.50;59.60;;;;;;4461009;32;19989;-71
2022/12/28 03:38:11;;;;;;;;;;;17.50;59.60;;;;;;4461676;32;19989;-71
2022/12/28 03:40:47;;;;;;;;;;;17.40;59.60;;;;;;4461276;32;19982;-71
2022/12/28 03:43:41;;;;;;;;;;;17.40;59.60;;;;;;4461535;32;20377;-71
2022/12/28 03:46:16;;;;;;;;;;;17.40;59.70;;;;;;4461327;32;19984;-71
2022/12/28 03:48:42;;;;;;;;;;;17.40;59.60;;;;;;4461177;32;19988;-71
2022/12/28 03:51:10;;;;;;;;;;;17.40;59.50;;;;;;4459895;32;19985;-71
2022/12/28 03:53:40;;;;;;;;;;;17.40;59.60;;;;;;4446902;32;19990;-72
2022/12/28 03:56:08;;;;;;;;;;;17.40;59.70;;;;;;4461379;32;20334;-71
2022/12/28 03:58:34;;;;;;;;;;;17.40;59.70;;;;;;4460927;32;19994;-71
2022/12/28 04:00:59;;;;;;;;;;;17.50;59.80;;;;;;4461077;32;20054;-72
2022/12/28 04:03:25;;;;;;;;;;;17.50;59.70;;;;;;4461302;32;19974;-71
2022/12/28 04:05:51;;;;;;;;;;;17.50;59.60;;;;;;4460937;32;19990;-71
2022/12/28 04:08:17;;;;;;;;;;;17.50;59.60;;;;;;4460787;32;20319;-71
2022/12/28 04:10:43;;;;;;;;;;;17.50;59.60;;;;;;4460950;32;20386;-71
2022/12/28 04:13:08;;;;;;;;;;;17.50;59.50;;;;;;4460965;32;20044;-71
2022/12/28 04:15:34;;;;;;;;;;;17.50;59.40;;;;;;4460888;32;20093;-71
2022/12/28 04:18:00;;;;;;;;;;;17.50;59.40;;;;;;4460890;32;19977;-71
2022/12/28 04:20:27;;;;;;;;;;;17.60;59.30;;;;;;4450200;32;20100;-71
2022/12/28 04:22:53;;;;;;;;;;;17.60;59.30;;;;;;4460912;32;19981;-71
2022/12/28 04:25:18;;;;;;;;;;;17.60;59.20;;;;;;4460578;32;19981;-71
2022/12/28 04:27:44;;;;;;;;;;;17.60;59.20;;;;;;4460596;32;19985;-71
2022/12/28 04:30:10;;;;;;;;;;;17.70;59.30;;;;;;4460631;32;20359;-71
2022/12/28 04:32:36;;;;;;;;;;;17.60;59.20;;;;;;4460910;32;20330;-72
2022/12/28 04:35:02;;;;;;;;;;;17.70;59.30;;;;;;4460840;32;19977;-71
2022/12/28 04:37:27;;;;;;;;;;;17.70;59.30;;;;;;4460172;32;20025;-71
2022/12/28 04:39:53;;;;;;;;;;;17.60;59.20;;;;;;4460787;32;20112;-71
2022/12/28 04:42:19;;;;;;;;;;;17.70;59.30;;;;;;4460594;32;20163;-71
2022/12/28 04:44:45;;;;;;;;;;;17.70;59.30;;;;;;4462919;32;20168;-71
2022/12/28 04:47:12;;;;;;;;;;;17.70;59.30;;;;;;4463887;32;19982;-71
2022/12/28 04:49:38;;;;;;;;;;;17.60;59.20;;;;;;4463849;32;20553;-71
2022/12/28 04:52:03;;;;;;;;;;;17.70;59.30;;;;;;4463907;32;19970;-71
2022/12/28 04:54:29;;;;;;;;;;;17.60;59.20;;;;;;4463627;32;20084;-71
2022/12/28 04:56:55;;;;;;;;;;;17.70;59.30;;;;;;4463971;32;20120;-71
2022/12/28 04:59:21;;;;;;;;;;;17.70;59.30;;;;;;4463451;32;20383;-71
2022/12/28 05:01:47;;;;;;;;;;;17.70;59.20;;;;;;4463654;32;20084;-72
2022/12/28 05:04:13;;;;;;;;;;;17.70;59.20;;;;;;4463294;32;20410;-71
2022/12/28 05:06:38;;;;;;;;;;;17.70;59.20;;;;;;4463127;32;19977;-71
2022/12/28 05:09:04;;;;;;;;;;;17.70;59.20;;;;;;4463660;32;19966;-71
2022/12/28 05:11:30;;;;;;;;;;;17.70;59.20;;;;;;4449216;32;19977;-71
2022/12/28 05:13:56;;;;;;;;;;;17.70;59.10;;;;;;4463349;32;19978;-72
2022/12/28 05:16:23;;;;;;;;;;;17.70;59.10;;;;;;4460727;32;20049;-71
2022/12/28 05:18:49;;;;;;;;;;;17.70;59.10;;;;;;4462095;32;20427;-71
2022/12/28 05:21:17;;;;;;;;;;;17.70;59.10;;;;;;4461856;32;20293;-71
2022/12/28 05:23:43;;;;;;;;;;;17.80;59.20;;;;;;4462777;32;20004;-71
2022/12/28 05:26:11;;;;;;;;;;;17.70;59.00;;;;;;4460237;32;20076;-71
2022/12/28 05:28:40;;;;;;;;;;;17.80;59.10;;;;;;4458903;32;20119;-71
2022/12/28 05:31:20;;;;;;;;;;;17.80;59.00;;;;;;4460805;32;19989;-71
2022/12/28 05:33:47;;;;;;;;;;;17.80;59.10;;;;;;4461179;32;20388;-72
2022/12/28 05:36:15;;;;;;;;;;;17.80;59.10;;;;;;4461002;32;19978;-71
2022/12/28 05:38:46;;;;;;;;;;;17.80;59.10;;;;;;4461137;32;19979;-71
2022/12/28 05:41:14;;;;;;;;;;;17.70;59.00;;;;;;4461853;32;19986;-72
2022/12/28 05:43:39;;;;;;;;;;;17.70;59.00;;;;;;4457986;32;20024;-71
2022/12/28 05:46:07;;;;;;;;;;;17.70;59.00;;;;;;4460331;32;20081;-72
2022/12/28 05:48:34;;;;;;;;;;;17.70;59.10;;;;;;4459169;32;19988;-72
2022/12/28 05:51:04;;;;;;;;;;;17.70;59.10;;;;;;4460918;32;20523;-71
2022/12/28 05:53:30;;;;;;;;;;;17.70;59.20;;;;;;4460493;32;20000;-72
2022/12/28 05:56:00;;;;;;;;;;;17.70;59.30;;;;;;4459174;32;19987;-72
2022/12/28 05:58:26;;;;;;;;;;;17.70;59.10;;;;;;4447572;32;20002;-72
2022/12/28 06:00:52;;;;;;;;;;;17.70;59.10;;;;;;4459656;32;20467;-72
2022/12/28 06:03:17;;;;;;;;;;;17.70;59.10;;;;;;4461169;32;20033;-71
2022/12/28 06:05:43;;;;;;;;;;;17.70;59.20;;;;;;4460880;32;20026;-72
2022/12/28 06:08:09;;;;;;;;;;;17.60;59.10;;;;;;4459204;32;19978;-71
2022/12/28 06:10:35;;;;;;;;;;;17.70;59.20;;;;;;4459533;32;19985;-72
2022/12/28 06:13:00;;;;;;;;;;;17.70;59.10;;;;;;4458320;32;19981;-71
2022/12/28 06:15:26;;;;;;;;;;;17.70;59.10;;;;;;4455001;32;19976;-71
2022/12/28 06:17:52;;;;;;;;;;;17.60;59.10;;;;;;4452699;32;19993;-72
2022/12/28 06:20:18;;;;;;;;;;;17.60;59.20;;;;;;4450516;32;20363;-71
2022/12/28 06:22:45;;;;;;;;;;;17.60;59.10;;;;;;4452460;32;19982;-71
2022/12/28 06:25:11;;;;;;;;;;;17.60;59.10;;;;;;4450257;32;19971;-71
2022/12/28 06:27:36;;;;;;;;;;;17.70;59.30;;;;;;4450889;32;19970;-71
2022/12/28 06:30:05;;;;;;;;;;;17.60;59.20;;;;;;4451814;32;19989;-72
2022/12/28 06:32:36;;;;;;;;;;;17.60;59.20;;;;;;4450114;32;20319;-72
2022/12/28 06:35:06;;;;;;;;;;;17.60;59.20;;;;;;4451924;32;20450;-71
2022/12/28 06:37:32;;;;;;;;;;;17.60;59.20;;;;;;4449581;32;20100;-71
2022/12/28 06:39:57;;;;;;;;;;;17.60;59.20;;;;;;4452544;32;20036;-72
2022/12/28 06:42:26;;;;;;;;;;;17.60;59.20;;;;;;4449897;32;19989;-71
2022/12/28 06:44:52;;;;;;;;;;;17.60;59.20;;;;;;4452117;32;20002;-72
2022/12/28 06:47:18;;;;;;;;;;;17.60;59.20;;;;;;4449895;32;20028;-71
2022/12/28 06:49:45;;;;;;;;;;;17.60;59.20;;;;;;4450707;32;20164;-71
2022/12/28 06:52:11;;;;;;;;;;;17.60;60.10;;;;;;4452778;32;19978;-71
2022/12/28 06:54:37;;;;;;;;;;;17.60;59.20;;;;;;4449621;32;19981;-71
2022/12/28 06:57:03;;;;;;;;;;;17.60;59.20;;;;;;4452245;32;20017;-71
2022/12/28 06:59:28;;;;;;;;;;;17.60;59.20;;;;;;4460188;32;20056;-71
2022/12/28 07:01:54;;;;;;;;;;;17.60;59.30;;;;;;4462093;32;19978;-71
2022/12/28 07:04:20;;;;;;;;;;;17.50;59.20;;;;;;4461866;32;19966;-71
2022/12/28 07:06:46;;;;;;;;;;;17.50;59.20;;;;;;4461188;32;19981;-71
2022/12/28 07:09:13;;;;;;;;;;;17.50;59.20;;;;;;4461853;32;20297;-71
2022/12/28 07:11:38;;;;;;;;;;;17.50;59.30;;;;;;4437229;32;20022;-71
2022/12/28 07:14:06;;;;;;;;;;;17.50;59.20;;;;;;4461895;32;20429;-71
2022/12/28 07:16:32;;;;;;;;;;;17.50;59.30;;;;;;4461555;32;19993;-71
2022/12/28 07:18:59;;;;;;;;;;;17.50;59.30;;;;;;4461758;32;20364;-71
2022/12/28 07:21:26;;;;;;;;;;;17.50;59.30;;;;;;4461652;32;20052;-71
2022/12/28 07:23:59;;;;;;;;;;;17.50;59.30;;;;;;4461695;32;20348;-71
2022/12/28 07:26:27;;;;;;;;;;;17.50;59.30;;;;;;4461597;32;19982;-71
2022/12/28 07:28:54;;;;;;;;;;;17.50;59.30;;;;;;4461698;32;20387;-71
2022/12/28 07:31:21;;;;;;;;;;;17.50;59.30;;;;;;4461658;32;19982;-71
2022/12/28 07:33:47;;;;;;;;;;;17.50;59.30;;;;;;4437115;32;19994;-71
2022/12/28 07:36:15;;;;;;;;;;;17.50;59.30;;;;;;4461356;32;20104;-71
2022/12/28 07:38:41;;;;;;;;;;;17.50;59.40;;;;;;4461326;32;19992;-72
2022/12/28 07:41:10;;;;;;;;;;;17.50;59.40;;;;;;4461337;32;20426;-71
2022/12/28 07:43:36;;;;;;;;;;;17.50;59.40;;;;;;4461291;32;20411;-71
2022/12/28 07:46:03;;;;;;;;;;;17.50;59.40;;;;;;4461432;32;19970;-71
2022/12/28 07:48:30;;;;;;;;;;;17.40;59.50;;;;;;4461220;32;19982;-71
2022/12/28 07:50:56;;;;;;;;;;;17.40;59.50;;;;;;4461625;32;19986;-71
2022/12/28 07:53:22;;;;;;;;;;;17.40;59.50;;;;;;4461362;32;20308;-71
2022/12/28 07:55:57;;;;;;;;;;;17.40;59.50;;;;;;4461264;32;19982;-71
2022/12/28 07:58:23;;;;;;;;;;;17.40;59.50;;;;;;4461133;32;20404;-71
2022/12/28 08:00:49;;;;;;;;;;;17.40;59.50;;;;;;4461081;32;20064;-71
2022/12/28 08:03:16;;;;;;;;;;;17.40;59.60;;;;;;4461168;32;19978;-72
2022/12/28 08:05:42;;;;;;;;;;;17.40;59.80;;;;;;4460916;32;19988;-73
2022/12/28 08:08:07;;;;;;;;;;;17.40;59.80;;;;;;4460650;32;19974;-72
2022/12/28 08:10:33;;;;;;;;;;;17.40;60.30;;;;;;4447109;32;19985;-72
2022/12/28 08:12:59;;;;;;;;;;;17.40;60.50;;;;;;4460873;32;19962;-72
2022/12/28 08:15:25;;;;;;;;;;;17.40;61.00;;;;;;4461194;32;19985;-72
2022/12/28 08:17:52;;;;;;;;;;;17.50;60.70;;;;;;4460740;32;20021;-73
2022/12/28 08:20:18;;;;;;;;;;;17.50;60.00;;;;;;4460971;32;20446;-73
2022/12/28 08:22:43;;;;;;;;;;;17.70;59.90;;;;;;4461327;32;20092;-72
2022/12/28 08:25:13;;;;;;;;;;;17.80;59.70;;;;;;4460789;32;20399;-73
2022/12/28 08:27:46;;;;;;;;;;;17.90;59.40;;;;;;4453919;32;20319;-73
2022/12/28 08:30:12;;;;;;;;;;;18.10;59.20;;;;;;4454282;32;19970;-73
2022/12/28 08:32:38;;;;;;;;;;;18.30;59.00;;;;;;4459668;32;20025;-73
2022/12/28 08:35:05;;;;;;;;;;;18.40;58.60;;;;;;4445677;32;20038;-73
2022/12/28 08:37:30;;;;;;;;;;;18.60;58.30;;;;;;4459961;32;20044;-73
2022/12/28 08:39:56;;;;;;;;;;;18.70;58.00;;;;;;4448995;32;20408;-72
2022/12/28 08:42:22;;;;;;;;;;;18.80;57.60;;;;;;4445556;32;19975;-72
2022/12/28 08:44:48;;;;;;;;;;;19.00;57.30;;;;;;4445533;32;19989;-72
2022/12/28 08:47:13;;;;;;;;;;;19.20;57.10;;;;;;4445360;32;19966;-73
2022/12/28 08:49:39;;;;;;;;;;;19.30;56.80;;;;;;4453517;32;19985;-73
2022/12/28 08:52:06;;;;;;;;;;;19.40;56.50;;;;;;4458089;32;20026;-73
2022/12/28 08:54:32;;;;;;;;;;;19.40;56.40;;;;;;4458751;32;19974;-72
2022/12/28 08:56:57;;;;;;;;;;;19.50;56.30;;;;;;4458013;32;20183;-73
2022/12/28 08:59:23;;;;;;;;;;;19.50;56.20;;;;;;4456704;32;19966;-73
2022/12/28 09:01:49;;;;;;;;;;;19.50;56.20;;;;;;4457579;32;19962;-72
2022/12/28 09:04:17;;;;;;;;;;;19.50;56.10;;;;;;4457523;32;20392;-72
2022/12/28 09:06:43;;;;;;;;;;;19.60;56.20;;;;;;4458138;32;20319;-72
2022/12/28 09:09:11;;;;;;;;;;;19.60;56.20;;;;;;4458809;32;20493;-74
2022/12/28 09:11:37;;;;;;;;;;;19.60;56.20;;;;;;4459403;32;19974;-73
2022/12/28 09:14:04;;;;;;;;;;;19.60;56.20;;;;;;4459908;32;19993;-73
2022/12/28 09:16:30;;;;;;;;;;;19.60;56.20;;;;;;4452516;32;19974;-73
2022/12/28 09:18:56;;;;;;;;;;;19.60;56.20;;;;;;4443574;32;19977;-73
2022/12/28 09:21:24;;;;;;;;;;;19.60;56.20;;;;;;4456583;32;20108;-73
2022/12/28 09:23:50;;;;;;;;;;;19.60;56.10;;;;;;4452460;32;20018;-73
2022/12/28 09:26:21;;;;;;;;;;;19.60;56.10;;;;;;4454634;32;19985;-73
2022/12/28 09:28:48;;;;;;;;;;;19.60;56.00;;;;;;4450337;32;20298;-72
2022/12/28 09:31:14;;;;;;;;;;;19.60;56.00;;;;;;4451947;32;20504;-73
2022/12/28 09:36:24;;;;;;;;;;;19.70;56.00;;;;;;4452854;32;20052;-73
2022/12/28 09:38:51;;;;;;;;;;;19.70;56.00;;;;;;4452930;32;20399;-73
2022/12/28 09:41:26;;;;;;;;;;;19.70;55.90;;;;;;4456590;32;20317;-73
2022/12/28 09:43:55;;;;;;;;;;;19.70;55.90;;;;;;4453487;32;20328;-72
2022/12/28 09:46:23;;;;;;;;;;;19.70;56.00;;;;;;4456779;32;20022;-71
2022/12/28 09:48:52;;;;;;;;;;;19.70;56.10;;;;;;4455339;32;20152;-71
2022/12/28 09:51:19;;;;;;;;;;;19.70;56.20;;;;;;4461740;32;20040;-70
2022/12/28 09:53:45;;;;;;;;;;;19.70;56.30;;;;;;4461379;32;20319;-73
2022/12/28 09:56:14;;;;;;;;;;;19.60;56.50;;;;;;4461594;32;19990;-70
2022/12/28 09:58:41;;;;;;;;;;;19.70;56.70;;;;;;4461036;32;19982;-72
2022/12/28 10:01:09;;;;;;;;;;;19.60;56.70;;;;;;4458897;32;20117;-72
2022/12/28 10:03:53;;;;;;;;;;;19.70;56.80;;;;;;4448897;32;19982;-72
2022/12/28 10:06:25;;;;;;;;;;;19.70;56.80;;;;;;4459457;32;20673;-71
2022/12/28 10:08:52;;;;;;;;;;;19.70;56.80;;;;;;4461537;32;20330;-71
2022/12/28 10:11:20;;;;;;;;;;;19.70;56.90;;;;;;4461329;32;20517;-71
2022/12/28 10:13:47;;;;;;;;;;;19.70;56.90;;;;;;4462241;32;20331;-71
2022/12/28 10:16:16;;;;;;;;;;;19.70;56.90;;;;;;4459553;32;19982;-72
2022/12/28 10:18:42;;;;;;;;;;;19.70;57.00;;;;;;4460660;32;20406;-72
2022/12/28 10:21:07;;;;;;;;;;;19.70;57.00;;;;;;4461054;32;19969;-72
2022/12/28 10:23:34;;;;;;;;;;;19.70;57.10;;;;;;4461147;32;20112;-72
2022/12/28 10:26:01;;;;;;;;;;;19.70;57.20;;;;;;4459987;32;20414;-71
2022/12/28 10:28:46;;;;;;;;;;;19.70;57.20;;;;;;4454150;32;19986;-72
2022/12/28 10:31:13;;;;;;;;;;;19.70;57.20;;;;;;4452924;32;20132;-71
2022/12/28 10:33:41;;;;;;;;;;;19.70;57.30;;;;;;4448251;32;20474;-71
2022/12/28 10:36:13;;;;;;;;;;;19.70;57.30;;;;;;4457845;32;20036;-72
2022/12/28 10:38:41;;;;;;;;;;;19.70;58.30;;;;;;4454619;32;20622;-72
2022/12/28 10:41:14;;;;;;;;;;;19.70;57.40;;;;;;4456412;32;20108;-72
2022/12/28 10:43:42;;;;;;;;;;;19.80;57.40;;;;;;4455048;32;19974;-71
2022/12/28 10:46:16;;;;;;;;;;;19.70;57.40;;;;;;4457070;32;19982;-72
2022/12/28 10:48:50;;;;;;;;;;;19.80;57.40;;;;;;4455511;32;19990;-71
2022/12/28 10:51:17;;;;;;;;;;;19.80;57.40;;;;;;4445087;32;19982;-71
2022/12/28 10:53:43;;;;;;;;;;;19.80;57.40;;;;;;4458825;32;19974;-72
2022/12/28 10:56:12;;;;;;;;;;;19.80;57.50;;;;;;4460623;32;20022;-72
2022/12/28 10:58:40;;;;;;;;;;;19.80;57.50;;;;;;4458622;32;20033;-71
2022/12/28 11:01:13;;;;;;;;;;;19.80;57.50;;;;;;4461546;32;19974;-72
2022/12/28 11:03:40;;;;;;;;;;;19.80;57.60;;;;;;4462175;32;20014;-71
2022/12/28 11:06:17;;;;;;;;;;;19.80;57.60;;;;;;4461355;32;19990;-72
2022/12/28 11:08:44;;;;;;;;;;;19.80;57.70;;;;;;4461399;32;19982;-71
2022/12/28 11:11:21;;;;;;;;;;;19.80;57.70;;;;;;4461091;32;20060;-71
2022/12/28 11:13:55;;;;;;;;;;;19.80;57.70;;;;;;4461281;32;19980;-71
2022/12/28 11:16:21;;;;;;;;;;;19.80;57.70;;;;;;4461059;32;20001;-71
2022/12/28 11:18:47;;;;;;;;;;;19.80;57.80;;;;;;4459827;32;19977;-72
2022/12/28 11:21:17;;;;;;;;;;;19.80;57.80;;;;;;4459172;32;20344;-72
2022/12/28 11:23:43;;;;;;;;;;;19.80;57.80;;;;;;4460320;32;20112;-70
2022/12/28 11:26:10;;;;;;;;;;;19.80;57.80;;;;;;4460489;32;20014;-71
2022/12/28 11:28:39;;;;;;;;;;;19.80;57.90;;;;;;4456744;32;20419;-72
2022/12/28 11:31:06;;;;;;;;;;;19.80;57.90;;;;;;4459746;32;19993;-71
2022/12/28 11:33:53;;;;;;;;;;;19.80;57.90;;;;;;4458626;32;20447;-71
2022/12/28 11:36:25;;;;;;;;;;;19.80;57.90;;;;;;4458443;32;19986;-71
2022/12/28 11:38:52;;;;;;;;;;;19.80;57.90;;;;;;4422709;32;20447;-72
2022/12/28 11:41:24;;;;;;;;;;;19.80;58.00;;;;;;4442580;32;19986;-72
2022/12/28 11:43:51;;;;;;;;;;;19.80;58.00;;;;;;4458787;32;19998;-72
2022/12/28 11:46:20;;;;;;;;;;;19.80;58.00;;;;;;4457034;32;20432;-73
2022/12/28 11:49:06;;;;;;;;;;;19.70;58.00;;;;;;4457896;32;19981;-72
2022/12/28 11:51:33;;;;;;;;;;;19.70;58.10;;;;;;4452610;32;20084;-71
2022/12/28 11:54:02;;;;;;;;;;;19.60;58.30;;;;;;4457987;32;20020;-72
2022/12/28 11:56:42;;;;;;;;;;;19.60;58.40;;;;;;4443069;32;20073;-72
2022/12/28 11:59:28;;;;;;;;;;;19.50;58.60;;;;;;4459307;32;19997;-72
2022/12/28 12:02:01;;;;;;;;;;;19.50;58.70;;;;;;4460361;32;19989;-72
2022/12/28 12:04:28;;;;;;;;;;;19.50;58.80;;;;;;4460073;32;20063;-72
2022/12/28 12:06:56;;;;;;;;;;;19.50;58.80;;;;;;4460383;32;19981;-72
2022/12/28 12:09:25;;;;;;;;;;;19.60;58.70;;;;;;4460746;32;20059;-72
2022/12/28 12:11:55;;;;;;;;;;;19.70;58.60;;;;;;4460758;32;20041;-71
2022/12/28 12:14:23;;;;;;;;;;;19.70;58.50;;;;;;4460606;32;20331;-72
2022/12/28 12:17:02;;;;;;;;;;;19.80;58.40;;;;;;4460841;32;19990;-70
2022/12/28 12:19:33;;;;;;;;;;;19.90;58.40;;;;;;4455789;32;20336;-72
2022/12/28 12:22:11;;;;;;;;;;;19.90;58.40;;;;;;4457204;32;20024;-72
2022/12/28 12:25:00;;;;;;;;;;;19.90;58.40;;;;;;4457751;32;19994;-72
2022/12/28 12:27:31;;;;;;;;;;;20.00;58.50;;;;;;4442662;32;20331;-71
2022/12/28 12:30:00;;;;;;;;;;;20.00;58.50;;;;;;4456579;32;20056;-71
2022/12/28 12:32:31;;;;;;;;;;;20.00;58.60;;;;;;4457992;32;20406;-71
2022/12/28 12:35:03;;;;;;;;;;;20.00;58.70;;;;;;4450555;32;19986;-72
2022/12/28 12:37:28;;;;;;;;;;;20.00;58.80;;;;;;4447707;32;19967;-72
2022/12/28 12:40:13;;;;;;;;;;;20.00;58.90;;;;;;4449745;32;19974;-72
2022/12/28 12:42:53;;;;;;;;;;;20.00;58.90;;;;;;4453670;32;19978;-72
2022/12/28 12:45:24;;;;;;;;;;;20.00;58.90;;;;;;4455952;32;20006;-73
2022/12/28 12:47:59;;;;;;;;;;;20.00;58.80;;;;;;4455990;32;20045;-73
2022/12/28 12:50:32;;;;;;;;;;;20.00;58.80;;;;;;4453660;32;20143;-72
2022/12/28 12:53:16;;;;;;;;;;;20.00;58.70;;;;;;4454987;32;20387;-74
2022/12/28 12:55:44;;;;;;;;;;;20.00;58.70;;;;;;4452339;32;20084;-73
2022/12/28 12:58:19;;;;;;;;;;;20.00;58.60;;;;;;4456660;32;20053;-72
2022/12/28 13:00:54;;;;;;;;;;;20.00;58.50;;;;;;4460556;32;19978;-73
2022/12/28 13:03:29;;;;;;;;;;;20.10;58.50;;;;;;4446732;32;20021;-73
2022/12/28 13:05:57;;;;;;;;;;;20.10;58.50;;;;;;4462480;32;19974;-73
2022/12/28 13:08:25;;;;;;;;;;;20.00;58.30;;;;;;4463593;32;19978;-73
2022/12/28 13:10:51;;;;;;;;;;;20.10;58.30;;;;;;4463639;32;20415;-73
2022/12/28 13:13:20;;;;;;;;;;;20.10;58.30;;;;;;4463748;32;19990;-72
2022/12/28 13:15:46;;;;;;;;;;;20.10;58.30;;;;;;4463690;32;20035;-73
2022/12/28 13:18:16;;;;;;;;;;;20.10;58.20;;;;;;4463281;32;20006;-72
2022/12/28 13:21:02;;;;;;;;;;;20.10;58.20;;;;;;4463568;32;19978;-72
2022/12/28 13:23:29;;;;;;;;;;;20.10;58.10;;;;;;4462815;32;20401;-73
2022/12/28 13:25:56;;;;;;;;;;;20.10;58.10;;;;;;4463415;32;20008;-73
2022/12/28 13:28:27;;;;;;;;;;;20.10;58.10;;;;;;4463279;32;20461;-73
2022/12/28 13:30:56;;;;;;;;;;;20.10;58.00;;;;;;4463500;32;19989;-72
2022/12/28 13:33:21;;;;;;;;;;;20.20;58.10;;;;;;4463149;32;20064;-72
2022/12/28 13:35:47;;;;;;;;;;;20.10;58.00;;;;;;4463438;32;20176;-72
2022/12/28 13:38:14;;;;;;;;;;;20.20;58.00;;;;;;4462873;32;19973;-73
2022/12/28 13:40:47;;;;;;;;;;;20.20;58.00;;;;;;4463346;32;20462;-73
2022/12/28 13:43:36;;;;;;;;;;;20.20;58.00;;;;;;4449224;32;20060;-73
2022/12/28 13:46:06;;;;;;;;;;;20.20;58.00;;;;;;4432294;32;20327;-73
2022/12/28 13:48:35;;;;;;;;;;;20.10;57.90;;;;;;4463303;32;19984;-73
2022/12/28 13:51:03;;;;;;;;;;;20.10;58.00;;;;;;4463248;32;20289;-73
2022/12/28 13:53:30;;;;;;;;;;;20.10;58.00;;;;;;4463234;32;20392;-73
2022/12/28 13:56:03;;;;;;;;;;;20.10;58.00;;;;;;4463110;32;20060;-73
2022/12/28 13:58:30;;;;;;;;;;;20.10;58.00;;;;;;4462617;32;19990;-67
2022/12/28 14:00:57;;;;;;;;;;;20.10;58.00;;;;;;4462745;32;19986;-72
2022/12/28 14:03:23;;;;;;;;;;;20.10;58.00;;;;;;4462984;32;19982;-71
2022/12/28 14:05:53;;;;;;;;;;;20.10;58.10;;;;;;4462551;32;19985;-72
2022/12/28 14:08:20;;;;;;;;;;;20.10;58.00;;;;;;4463047;32;20022;-73
2022/12/28 14:10:46;;;;;;;;;;;20.10;58.10;;;;;;4462425;32;20052;-71
2022/12/28 14:13:12;;;;;;;;;;;20.10;58.10;;;;;;4450611;32;19975;-73
2022/12/28 14:15:38;;;;;;;;;;;20.10;58.10;;;;;;4450064;32;19986;-73
2022/12/28 14:18:04;;;;;;;;;;;20.10;58.20;;;;;;4452418;32;20152;-72
2022/12/28 14:20:29;;;;;;;;;;;20.20;58.20;;;;;;4456096;32;20112;-73
2022/12/28 14:23:15;;;;;;;;;;;20.20;58.20;;;;;;4460822;32;19984;-73
2022/12/28 14:25:41;;;;;;;;;;;20.20;58.30;;;;;;4461824;32;20300;-73
2022/12/28 14:28:17;;;;;;;;;;;20.30;58.40;;;;;;4458713;32;19974;-73
2022/12/28 14:30:42;;;;;;;;;;;20.30;58.40;;;;;;4458791;32;19985;-73
2022/12/28 14:33:18;;;;;;;;;;;20.30;58.50;;;;;;4459598;32;20388;-74
2022/12/28 14:35:48;;;;;;;;;;;20.30;58.50;;;;;;4459223;32;20191;-73
2022/12/28 14:38:21;;;;;;;;;;;20.30;58.50;;;;;;4460167;32;19977;-74
2022/12/28 14:40:57;;;;;;;;;;;20.30;58.50;;;;;;4457771;32;19974;-74
2022/12/28 14:43:30;;;;;;;;;;;20.30;58.50;;;;;;4458141;32;20315;-72
2022/12/28 14:45:56;;;;;;;;;;;20.30;58.60;;;;;;4459086;32;19986;-72
2022/12/28 14:48:22;;;;;;;;;;;20.30;58.60;;;;;;4460449;32;19986;-75
2022/12/28 14:50:55;;;;;;;;;;;20.30;58.70;;;;;;4455676;32;20056;-71
2022/12/28 14:53:22;;;;;;;;;;;20.20;58.80;;;;;;4447712;32;20108;-74